Nemaha, IA (50567)

11:37 AM CST on February 11, 2016 (GMT -0600)
Storm Lake Municipal | | Change Station
CLOSE
Current Station
Airport
Location: Storm Lake,
Elevation: 1490 ft
Nearby Weather Stations

Elev 1490 ft 42.60 °N, 95.24 °W | Updated 22 minutes ago

Overcast
Overcast
12 °F
Feels Like -1 °F
N
10
Wind Variable Wind from SSE

Today
High -- | Low -- °F
--% Chance of Precip.
Yesterday
High -- | Low -- °F
Precip. -- in
Pressure 30.28 in
Visibility 10.0 miles
Clouds Overcast 2900 ft
Windchill -1 °F
Dew Point 5 °F
Humidity 73%
Rainfall 0.00 in
Snow Depth Not available.
7:23 AM 5:46 PM
Waxing Crescent, 13% visible
METAR KSLB 111715Z AUTO 16009KT 10SM OVC029 M11/M15 A3028 RMK AO2
Pressure 30.28 in
Visibility 10.0 miles
Clouds Overcast 2900 ft
Windchill -1 °F
Dew Point 5 °F
Humidity 73%
Rainfall 0.00 in
Snow Depth Not available.
7:23 AM 5:46 PM
Waxing Crescent, 13% visible
METAR KSLB 111715Z AUTO 16009KT 10SM OVC029 M11/M15 A3028 RMK AO2

10-Day Weather Forecast

Almanac

Astronomy

Feb. 11, 2016 Rise Set
Actual Time
Civil Twilight
Nautical Twilight
Astronomical Twilight
Moon
Length of Visible Light
Length of Day
Tomorrow will be .
, % of the Moon is Illuminated

Today's Extremes

State Highs State Lows

Community

WunderPhotos

Upload Photos

1,892,109 photos uploaded!

WunderBlog® & News

Nearby

Air Quality

  Air Quality AQ Index Pollutant
Not available.

Snow Depth

Station Depth Elevation

Earthquake Activity

City Distance Mag. Time & Date
Minimum magnitude displayed is 2.5.

Coastal Water Temperatures

Place Temperature

Stations

Nearby Weather Stations

Station Location Temp. Windchill Dew Point Humidity Wind Precip. Elev Updated Type
                   

Watches & Warnings

There are currently no watches in effect.